Time;durP1;ratioP1;P1;durP2;ratioP2;P2;SDS_P1;SDS_P2;PMS_P1;PMS_P2;Temp;Humidity;BMP_temperature;BMP_pressure;BME280_temperature;BME280_humidity;BME280_pressure;Samples;Min_cycle;Max_cycle;Signal;HPM_P1;HPM_P2
2022/11/28 00:00:52;;;;;;;20.60;11.02;;;;;;;;;;4685891;30;20053;-86
2022/11/28 00:03:21;;;;;;;18.75;13.07;;;;;;;;;;4644313;30;20065;-86
2022/11/28 00:05:49;;;;;;;18.08;10.40;;;;;;;;;;4673666;30;20504;-86
2022/11/28 00:08:17;;;;;;;20.65;13.85;;;;;;;;;;4687259;30;20053;-88
2022/11/28 00:10:44;;;;;;;28.13;16.33;;;;;;;;;;4685104;30;20508;-87
2022/11/28 00:13:12;;;;;;;19.17;11.77;;;;;;;;;;4670013;30;20061;-87
2022/11/28 00:15:40;;;;;;;23.13;12.23;;;;;;;;;;4653707;30;20063;-87
2022/11/28 00:18:09;;;;;;;15.52;10.55;;;;;;;;;;4654275;30;20067;-86
2022/11/28 00:20:37;;;;;;;26.73;18.25;;;;;;;;;;4639457;30;20505;-87
2022/11/28 00:23:04;;;;;;;17.90;11.70;;;;;;;;;;4654253;30;20406;-86
2022/11/28 00:25:32;;;;;;;22.23;10.82;;;;;;;;;;4670469;30;20481;-87
2022/11/28 00:28:00;;;;;;;17.75;11.52;;;;;;;;;;4669486;30;20054;-87
2022/11/28 00:30:27;;;;;;;18.65;11.50;;;;;;;;;;4635962;30;20062;-87
2022/11/28 00:32:55;;;;;;;17.52;11.13;;;;;;;;;;4655992;30;20532;-87
2022/11/28 00:35:23;;;;;;;25.00;13.55;;;;;;;;;;4684537;30;20070;-87
2022/11/28 00:37:50;;;;;;;21.35;11.13;;;;;;;;;;4670672;30;20050;-87
2022/11/28 00:40:18;;;;;;;19.70;14.48;;;;;;;;;;4670139;30;20524;-87
2022/11/28 00:42:46;;;;;;;21.60;13.60;;;;;;;;;;4684681;30;20413;-87
2022/11/28 00:45:13;;;;;;;19.35;12.30;;;;;;;;;;4655965;30;20057;-87
2022/11/28 00:47:41;;;;;;;18.65;12.63;;;;;;;;;;4655660;30;20053;-87
2022/11/28 00:50:09;;;;;;;33.72;19.08;;;;;;;;;;4655975;30;20065;-87
2022/11/28 00:52:36;;;;;;;14.77;9.15;;;;;;;;;;4669963;30;20076;-87
2022/11/28 01:00:51;;;;;;;23.15;12.80;;;;;;;;;;4671399;30;20049;-87
2022/11/28 01:03:19;;;;;;;22.55;13.20;;;;;;;;;;4624376;30;20062;-87
2022/11/28 01:05:46;;;;;;;20.25;12.35;;;;;;;;;;4653119;30;20065;-87
2022/11/28 01:08:14;;;;;;;28.48;16.63;;;;;;;;;;4652918;30;20046;-87
2022/11/28 01:10:43;;;;;;;31.52;19.27;;;;;;;;;;4639279;30;20075;-87
2022/11/28 01:13:11;;;;;;;34.95;20.55;;;;;;;;;;4652828;30;20063;-87
2022/11/28 01:15:42;;;;;;;19.00;12.80;;;;;;;;;;4640934;30;20054;-87
2022/11/28 01:18:09;;;;;;;15.45;12.02;;;;;;;;;;4655702;30;20050;-87
2022/11/28 01:20:37;;;;;;;21.73;12.27;;;;;;;;;;4655452;30;20050;-86
2022/11/28 01:23:05;;;;;;;16.88;11.77;;;;;;;;;;4655406;30;20402;-86
2022/11/28 01:26:08;;;;;;;35.83;15.68;;;;;;;;;;4655862;30;20050;-87
2022/11/28 01:28:36;;;;;;;19.40;12.52;;;;;;;;;;4655564;30;20062;-87
2022/11/28 01:31:07;;;;;;;54.35;21.70;;;;;;;;;;4669423;30;20065;-87
2022/11/28 01:33:35;;;;;;;;;;;;;;;;;;4670720;30;20056;-87
2022/11/28 01:36:03;;;;;;;45.20;13.15;;;;;;;;;;4669383;30;19928;-87
2022/11/28 01:38:31;;;;;;;19.90;10.93;;;;;;;;;;4670991;30;20064;-84
2022/11/28 01:41:00;;;;;;;17.70;13.63;;;;;;;;;;4684797;30;20057;-82
2022/11/28 01:43:27;;;;;;;16.48;13.10;;;;;;;;;;4700080;30;20068;-82
2022/11/28 01:45:56;;;;;;;17.83;11.85;;;;;;;;;;4678272;30;20053;-81
2022/11/28 01:48:25;;;;;;;81.93;22.85;;;;;;;;;;4699382;30;20045;-82
2022/11/28 01:50:57;;;;;;;22.25;13.50;;;;;;;;;;4671097;30;20049;-82
2022/11/28 01:53:28;;;;;;;20.42;11.38;;;;;;;;;;4700174;30;20057;-82
2022/11/28 01:55:58;;;;;;;33.85;7.25;;;;;;;;;;4699988;30;20045;-81
2022/11/28 01:58:27;;;;;;;29.35;10.35;;;;;;;;;;4699431;30;20081;-83
2022/11/28 02:00:54;;;;;;;76.55;10.20;;;;;;;;;;4684431;30;20050;-81
2022/11/28 02:03:25;;;;;;;131.75;12.18;;;;;;;;;;4681074;30;20058;-81
2022/11/28 02:05:53;;;;;;;36.88;11.23;;;;;;;;;;4699312;30;20061;-81
2022/11/28 02:08:21;;;;;;;31.52;11.10;;;;;;;;;;4699541;30;20050;-82
2022/11/28 02:10:59;;;;;;;66.57;11.70;;;;;;;;;;4675402;30;20065;-81
2022/11/28 02:13:39;;;;;;;30.60;8.63;;;;;;;;;;4698098;30;20054;-81
2022/11/28 02:16:18;;;;;;;41.03;10.98;;;;;;;;;;4699641;30;20065;-82
2022/11/28 02:19:04;;;;;;;12.93;9.98;;;;;;;;;;4699886;30;20060;-81
2022/11/28 02:21:49;;;;;;;22.67;9.57;;;;;;;;;;4683756;30;20054;-82
2022/11/28 02:24:42;;;;;;;33.33;11.02;;;;;;;;;;4684158;30;20053;-82
2022/11/28 02:27:17;;;;;;;23.63;10.70;;;;;;;;;;4677280;30;20413;-81
2022/11/28 02:30:05;;;;;;;18.48;10.63;;;;;;;;;;4700010;30;20061;-82
2022/11/28 02:32:36;;;;;;;25.48;12.55;;;;;;;;;;4686477;30;20049;-83
2022/11/28 02:35:04;;;;;;;15.30;10.70;;;;;;;;;;4683901;30;20062;-80
2022/11/28 02:37:31;;;;;;;30.80;11.60;;;;;;;;;;4681174;30;20058;-82
2022/11/28 02:39:59;;;;;;;16.55;11.05;;;;;;;;;;4699569;30;20062;-81
2022/11/28 02:42:38;;;;;;;18.05;11.50;;;;;;;;;;4693709;30;20057;-81
2022/11/28 02:45:09;;;;;;;16.60;10.07;;;;;;;;;;4699205;30;20064;-81
2022/11/28 02:47:50;;;;;;;37.20;11.88;;;;;;;;;;4697572;30;20393;-82
2022/11/28 02:50:24;;;;;;;13.50;10.13;;;;;;;;;;4683730;30;20068;-82
2022/11/28 02:52:53;;;;;;;18.88;12.32;;;;;;;;;;4698840;30;20064;-81
2022/11/28 02:55:25;;;;;;;17.42;10.02;;;;;;;;;;4699073;30;20053;-82
2022/11/28 02:57:55;;;;;;;18.73;11.65;;;;;;;;;;4698547;30;20049;-81
2022/11/28 03:00:33;;;;;;;17.50;10.35;;;;;;;;;;4683523;30;20073;-82
2022/11/28 03:03:04;;;;;;;16.48;10.93;;;;;;;;;;4699513;30;20058;-83
2022/11/28 03:05:40;;;;;;;15.23;12.13;;;;;;;;;;4683255;30;20069;-81
2022/11/28 03:08:08;;;;;;;19.38;10.32;;;;;;;;;;4699120;30;20058;-81
2022/11/28 03:10:44;;;;;;;16.85;9.88;;;;;;;;;;4676505;30;20050;-81
2022/11/28 03:13:17;;;;;;;17.35;11.20;;;;;;;;;;4683619;30;20723;-81
2022/11/28 03:16:04;;;;;;;14.75;7.97;;;;;;;;;;4681131;30;20046;-81
2022/11/28 03:18:35;;;;;;;13.80;9.70;;;;;;;;;;4681917;30;20077;-82
2022/11/28 03:21:11;;;;;;;13.38;8.32;;;;;;;;;;4666268;30;20706;-82
2022/11/28 03:23:44;;;;;;;20.33;10.10;;;;;;;;;;4652999;30;20054;-87
2022/11/28 03:26:18;;;;;;;19.02;9.52;;;;;;;;;;4654284;30;20057;-87
2022/11/28 03:28:55;;;;;;;18.17;11.93;;;;;;;;;;4667926;30;20050;-87
2022/11/28 03:31:25;;;;;;;7.65;4.25;;;;;;;;;;4653600;30;20062;-87
2022/11/28 03:33:54;;;;;;;13.55;9.15;;;;;;;;;;4668268;30;20482;-88
2022/11/28 03:36:26;;;;;;;10.93;7.80;;;;;;;;;;4667829;30;20429;-87
2022/11/28 03:38:59;;;;;;;10.68;7.70;;;;;;;;;;4668046;30;20061;-86
2022/11/28 03:41:30;;;;;;;17.30;10.48;;;;;;;;;;4687726;30;20057;-86
2022/11/28 03:43:58;;;;;;;14.15;10.38;;;;;;;;;;4666304;30;20057;-86
2022/11/28 03:46:31;;;;;;;16.38;10.15;;;;;;;;;;4667312;30;20061;-87
2022/11/28 03:49:00;;;;;;;15.57;9.45;;;;;;;;;;4681753;30;20409;-88
2022/11/28 03:51:33;;;;;;;18.25;12.55;;;;;;;;;;4682073;30;20046;-88
2022/11/28 03:58:44;;;;;;;18.63;11.57;;;;;;;;;;4672843;30;20046;-88
2022/11/28 04:01:18;;;;;;;17.42;11.90;;;;;;;;;;4670554;30;20053;-88
2022/11/28 04:03:56;;;;;;;22.85;10.82;;;;;;;;;;4685624;30;20053;-88
2022/11/28 04:06:26;;;;;;;18.65;10.93;;;;;;;;;;4671530;30;20501;-88
2022/11/28 04:09:04;;;;;;;17.33;9.43;;;;;;;;;;4667363;30;20065;-88
2022/11/28 04:11:44;;;;;;;17.10;10.20;;;;;;;;;;4654019;30;20054;-87
2022/11/28 04:14:17;;;;;;;18.33;12.43;;;;;;;;;;4668259;30;20066;-88
2022/11/28 04:16:47;;;;;;;17.58;10.15;;;;;;;;;;4660590;30;20059;-87
2022/11/28 04:19:26;;;;;;;13.82;9.45;;;;;;;;;;4681840;30;20089;-88
2022/11/28 04:22:08;;;;;;;18.73;10.63;;;;;;;;;;4668215;30;20055;-88
2022/11/28 04:24:41;;;;;;;13.93;7.25;;;;;;;;;;4667696;30;20068;-87
2022/11/28 04:27:10;;;;;;;17.38;11.15;;;;;;;;;;4653313;30;20055;-87
2022/11/28 04:29:40;;;;;;;22.40;12.77;;;;;;;;;;4653620;30;20059;-88
2022/11/28 04:32:09;;;;;;;25.85;12.65;;;;;;;;;;4653262;30;20425;-87
2022/11/28 04:34:38;;;;;;;21.35;13.13;;;;;;;;;;4682054;30;20089;-87
2022/11/28 04:37:07;;;;;;;16.80;11.95;;;;;;;;;;4653118;30;20062;-87
2022/11/28 04:39:37;;;;;;;19.48;13.18;;;;;;;;;;4667289;30;20054;-87
2022/11/28 04:42:07;;;;;;;14.75;9.30;;;;;;;;;;4666873;30;20072;-87
2022/11/28 04:44:35;;;;;;;16.27;9.98;;;;;;;;;;4681058;30;20050;-87
2022/11/28 04:47:03;;;;;;;20.25;10.80;;;;;;;;;;4681906;30;20047;-87
2022/11/28 04:49:31;;;;;;;9.38;7.85;;;;;;;;;;4666236;30;20530;-87
2022/11/28 04:52:22;;;;;;;17.63;9.57;;;;;;;;;;4659158;30;20406;-87
2022/11/28 05:04:30;;;;;;;18.67;10.88;;;;;;;;;;4666520;30;20050;-87
2022/11/28 05:07:02;;;;;;;22.95;12.95;;;;;;;;;;4680575;30;20504;-87
2022/11/28 05:09:30;;;;;;;20.27;12.15;;;;;;;;;;4669239;30;20061;-87
2022/11/28 05:11:58;;;;;;;15.63;10.35;;;;;;;;;;4668791;30;20065;-87
2022/11/28 05:14:26;;;;;;;22.50;13.07;;;;;;;;;;4670291;30;20050;-87
2022/11/28 05:16:53;;;;;;;21.95;12.40;;;;;;;;;;4686798;30;20068;-88
2022/11/28 05:19:21;;;;;;;18.48;12.07;;;;;;;;;;4686743;30;20068;-87
2022/11/28 05:21:51;;;;;;;25.45;12.60;;;;;;;;;;4683535;30;20072;-87
2022/11/28 05:27:58;;;;;;;19.80;12.02;;;;;;;;;;4683636;30;20049;-87
2022/11/28 05:30:25;;;;;;;25.45;14.60;;;;;;;;;;4684287;30;20050;-87
2022/11/28 05:32:53;;;;;;;27.02;12.98;;;;;;;;;;4658223;30;20066;-87
2022/11/28 05:35:22;;;;;;;28.40;15.10;;;;;;;;;;4684282;30;20050;-87
2022/11/28 05:37:49;;;;;;;21.38;14.25;;;;;;;;;;4661205;30;20058;-87
2022/11/28 05:40:17;;;;;;;26.83;13.73;;;;;;;;;;4668757;30;20069;-88
2022/11/28 05:42:45;;;;;;;26.75;12.63;;;;;;;;;;4666299;30;20050;-88
2022/11/28 05:45:13;;;;;;;25.15;14.00;;;;;;;;;;4661927;30;20050;-88
2022/11/28 05:47:40;;;;;;;23.77;13.38;;;;;;;;;;4654308;30;20057;-87
2022/11/28 05:50:08;;;;;;;18.98;12.48;;;;;;;;;;4654363;30;20104;-87
2022/11/28 05:52:36;;;;;;;22.85;13.30;;;;;;;;;;4653513;30;20076;-89
2022/11/28 05:55:09;;;;;;;23.70;14.45;;;;;;;;;;4653710;30;20144;-86
2022/11/28 05:57:37;;;;;;;29.13;13.18;;;;;;;;;;4682230;30;20062;-88
2022/11/28 06:00:05;;;;;;;22.27;14.27;;;;;;;;;;4681517;30;20430;-87
2022/11/28 06:02:38;;;;;;;21.27;12.20;;;;;;;;;;4683372;30;20065;-86
2022/11/28 06:05:06;;;;;;;22.92;14.68;;;;;;;;;;4667136;30;20054;-88
2022/11/28 06:07:54;;;;;;;19.95;15.27;;;;;;;;;;4649118;30;20050;-88
2022/11/28 06:10:22;;;;;;;23.40;13.43;;;;;;;;;;4657817;30;20829;-88
2022/11/28 06:12:56;;;;;;;20.30;12.52;;;;;;;;;;4667206;30;20050;-88
2022/11/28 06:15:24;;;;;;;18.48;11.23;;;;;;;;;;4664416;30;20074;-88
2022/11/28 06:17:57;;;;;;;20.98;12.43;;;;;;;;;;4653705;30;20512;-88
2022/11/28 06:23:52;;;;;;;16.73;8.85;;;;;;;;;;4923611;24;20041;-88
2022/11/28 06:26:21;;;;;;;18.38;9.35;;;;;;;;;;4701607;30;20061;-88
2022/11/28 06:28:49;;;;;;;17.85;10.50;;;;;;;;;;4687224;30;20053;-88
2022/11/28 06:35:43;;;;;;;12.75;7.57;;;;;;;;;;4703113;30;20061;-83
2022/11/28 06:38:18;;;;;;;16.83;9.32;;;;;;;;;;4699656;30;20065;-88
2022/11/28 06:41:13;;;;;;;17.08;9.85;;;;;;;;;;4700558;30;20060;-87
2022/11/28 06:43:46;;;;;;;21.60;13.25;;;;;;;;;;4694091;30;20500;-80
2022/11/28 06:46:18;;;;;;;16.10;10.13;;;;;;;;;;4716732;30;20045;-80
2022/11/28 06:48:46;;;;;;;9.18;7.95;;;;;;;;;;4716300;30;20056;-80
2022/11/28 06:51:15;;;;;;;18.00;12.32;;;;;;;;;;4716546;30;20502;-80
2022/11/28 06:53:43;;;;;;;22.65;13.32;;;;;;;;;;4714881;30;20432;-79
2022/11/28 06:56:12;;;;;;;14.80;8.80;;;;;;;;;;4713948;30;20045;-79
2022/11/28 06:58:41;;;;;;;17.83;13.02;;;;;;;;;;4715341;30;20045;-79
2022/11/28 07:01:16;;;;;;;16.83;12.93;;;;;;;;;;4723475;30;20404;-79
2022/11/28 07:03:45;;;;;;;22.67;14.95;;;;;;;;;;4697459;30;20053;-79
2022/11/28 07:06:13;;;;;;;18.80;11.85;;;;;;;;;;4698204;30;20061;-79
2022/11/28 07:08:41;;;;;;;20.50;12.25;;;;;;;;;;4699271;30;20046;-80
2022/11/28 07:11:22;;;;;;;17.63;9.40;;;;;;;;;;4716426;30;20087;-80
2022/11/28 07:13:50;;;;;;;20.90;14.30;;;;;;;;;;4716968;30;20049;-80
2022/11/28 07:16:19;;;;;;;18.27;10.57;;;;;;;;;;4714701;30;20064;-80
2022/11/28 07:18:47;;;;;;;21.40;11.35;;;;;;;;;;4716584;30;20053;-80
2022/11/28 07:21:16;;;;;;;24.45;12.55;;;;;;;;;;4716588;30;20057;-80
2022/11/28 07:23:44;;;;;;;13.90;9.18;;;;;;;;;;4716109;30;20417;-81
2022/11/28 07:26:13;;;;;;;18.33;9.90;;;;;;;;;;4716533;30;20053;-80
2022/11/28 07:28:41;;;;;;;21.05;13.23;;;;;;;;;;4714829;30;20057;-80
2022/11/28 07:31:30;;;;;;;23.17;14.15;;;;;;;;;;4700490;30;20057;-80
2022/11/28 07:34:00;;;;;;;20.00;11.80;;;;;;;;;;4716392;30;20073;-80
2022/11/28 07:36:29;;;;;;;15.60;9.52;;;;;;;;;;4703781;30;20064;-80
2022/11/28 07:39:00;;;;;;;18.98;10.52;;;;;;;;;;4720176;30;20060;-81
2022/11/28 07:41:30;;;;;;;13.68;8.27;;;;;;;;;;4718327;30;20053;-81
2022/11/28 07:43:59;;;;;;;11.40;8.23;;;;;;;;;;4719454;30;20064;-80
2022/11/28 07:46:28;;;;;;;21.63;13.38;;;;;;;;;;4719755;30;20057;-80
2022/11/28 07:48:56;;;;;;;18.45;13.02;;;;;;;;;;4719304;30;20056;-81
2022/11/28 07:51:25;;;;;;;15.77;10.77;;;;;;;;;;4719338;30;21011;-80
2022/11/28 07:53:53;;;;;;;20.65;14.05;;;;;;;;;;4719591;30;20062;-81
2022/11/28 07:56:23;;;;;;;16.73;11.50;;;;;;;;;;4717857;30;20071;-81
2022/11/28 07:58:51;;;;;;;20.17;14.85;;;;;;;;;;4719660;30;20072;-80
2022/11/28 08:01:27;;;;;;;23.10;15.07;;;;;;;;;;4718093;30;20549;-82
2022/11/28 08:03:55;;;;;;;19.83;14.70;;;;;;;;;;4719054;30;20053;-80
2022/11/28 08:06:24;;;;;;;19.10;12.27;;;;;;;;;;4719674;30;20096;-80
2022/11/28 08:08:52;;;;;;;22.52;12.05;;;;;;;;;;4717965;30;20876;-80
2022/11/28 08:11:21;;;;;;;19.75;12.32;;;;;;;;;;4719274;30;20412;-80
2022/11/28 08:13:49;;;;;;;21.40;13.95;;;;;;;;;;4706281;30;20083;-80
2022/11/28 08:16:21;;;;;;;18.08;10.50;;;;;;;;;;4701446;30;20060;-80
2022/11/28 08:18:49;;;;;;;26.88;14.02;;;;;;;;;;4686032;30;20626;-79
2022/11/28 08:21:19;;;;;;;17.48;11.65;;;;;;;;;;4701379;30;20417;-80
2022/11/28 08:23:46;;;;;;;19.85;12.38;;;;;;;;;;4701258;30;20050;-81
2022/11/28 08:26:20;;;;;;;22.52;12.00;;;;;;;;;;4686192;30;20076;-80
2022/11/28 08:28:53;;;;;;;21.20;11.88;;;;;;;;;;4700345;30;20050;-80
2022/11/28 08:31:21;;;;;;;21.23;13.10;;;;;;;;;;4701166;30;20079;-80
2022/11/28 08:33:50;;;;;;;21.02;10.68;;;;;;;;;;4701635;30;20058;-80
2022/11/28 08:36:18;;;;;;;19.90;11.23;;;;;;;;;;4701221;30;20403;-80
2022/11/28 08:38:47;;;;;;;21.00;14.68;;;;;;;;;;4701836;30;20066;-80
2022/11/28 08:41:35;;;;;;;17.40;10.95;;;;;;;;;;4714185;30;20067;-80
2022/11/28 08:44:02;;;;;;;15.00;9.02;;;;;;;;;;4700859;30;20057;-80
2022/11/28 08:46:30;;;;;;;17.67;10.07;;;;;;;;;;4700995;30;20079;-80
2022/11/28 08:49:00;;;;;;;19.83;11.80;;;;;;;;;;4701035;30;20750;-80
2022/11/28 08:51:31;;;;;;;24.42;12.65;;;;;;;;;;4701176;30;20401;-80
2022/11/28 08:53:59;;;;;;;22.52;12.52;;;;;;;;;;4701775;30;20054;-80
2022/11/28 08:56:27;;;;;;;19.92;13.13;;;;;;;;;;4699308;30;20057;-86
2022/11/28 08:58:55;;;;;;;24.85;12.18;;;;;;;;;;4700363;30;20542;-85
2022/11/28 09:01:24;;;;;;;26.02;13.88;;;;;;;;;;4685619;30;20050;-85
2022/11/28 09:03:53;;;;;;;19.20;13.73;;;;;;;;;;4685621;30;20057;-85
2022/11/28 09:06:21;;;;;;;19.52;12.77;;;;;;;;;;4701453;30;20362;-85
2022/11/28 09:08:49;;;;;;;18.55;13.05;;;;;;;;;;4685172;30;20409;-85
2022/11/28 09:11:18;;;;;;;24.42;13.70;;;;;;;;;;4699586;30;20061;-85
2022/11/28 09:13:46;;;;;;;14.65;10.32;;;;;;;;;;4685726;30;20413;-85
2022/11/28 09:16:14;;;;;;;24.00;15.70;;;;;;;;;;4671109;30;20401;-85
2022/11/28 09:18:42;;;;;;;21.73;12.50;;;;;;;;;;4699898;30;20065;-85
2022/11/28 09:21:11;;;;;;;18.63;12.45;;;;;;;;;;4699607;30;20057;-85
2022/11/28 09:23:40;;;;;;;21.85;14.30;;;;;;;;;;4685123;30;20642;-86
2022/11/28 09:26:47;;;;;;;22.95;13.82;;;;;;;;;;4696872;30;20383;-85
2022/11/28 09:29:14;;;;;;;19.38;11.48;;;;;;;;;;4667981;30;20054;-86
2022/11/28 09:31:42;;;;;;;17.45;11.32;;;;;;;;;;4696538;30;20489;-86
2022/11/28 09:34:14;;;;;;;18.38;11.18;;;;;;;;;;4682144;30;20050;-80
2022/11/28 09:36:42;;;;;;;17.17;9.85;;;;;;;;;;4682796;30;20517;-81
2022/11/28 09:39:10;;;;;;;21.08;12.30;;;;;;;;;;4682882;30;20072;-80
2022/11/28 09:41:40;;;;;;;19.23;12.68;;;;;;;;;;4683576;30;20505;-80
2022/11/28 09:44:11;;;;;;;24.38;14.50;;;;;;;;;;4683319;30;20061;-80
2022/11/28 09:46:39;;;;;;;;;;;;;;;;;;4683923;30;20406;-80
2022/11/28 09:49:30;;;;;;;18.83;12.18;;;;;;;;;;4682671;30;19934;-80
2022/11/28 09:52:29;;;;;;;18.88;10.70;;;;;;;;;;4681723;30;20050;-80
2022/11/28 09:55:03;;;;;;;15.38;10.05;;;;;;;;;;4673432;30;20065;-80
2022/11/28 09:57:31;;;;;;;12.98;9.02;;;;;;;;;;4681764;30;20064;-81
2022/11/28 09:59:59;;;;;;;20.98;11.60;;;;;;;;;;4682713;30;20057;-81
2022/11/28 10:02:33;;;;;;;16.48;9.45;;;;;;;;;;4681933;30;20070;-80
2022/11/28 10:05:04;;;;;;;13.60;10.10;;;;;;;;;;4681101;30;20054;-80
2022/11/28 10:07:35;;;;;;;19.93;11.27;;;;;;;;;;4695225;30;20049;-81
2022/11/28 10:10:13;;;;;;;13.80;8.15;;;;;;;;;;4682892;30;20309;-80
2022/11/28 10:12:44;;;;;;;16.98;8.70;;;;;;;;;;4682677;30;20054;-81
2022/11/28 10:15:26;;;;;;;12.88;7.95;;;;;;;;;;4681346;30;20058;-80
2022/11/28 10:18:04;;;;;;;13.43;9.07;;;;;;;;;;4681476;30;20054;-80
2022/11/28 10:20:35;;;;;;;11.77;8.57;;;;;;;;;;4681459;30;20058;-81
2022/11/28 10:23:06;;;;;;;12.48;9.00;;;;;;;;;;4681574;30;20050;-80
2022/11/28 10:25:49;;;;;;;11.35;8.88;;;;;;;;;;4680829;30;20058;-81
2022/11/28 10:28:19;;;;;;;11.77;10.02;;;;;;;;;;4682156;30;20417;-80
2022/11/28 10:30:50;;;;;;;12.35;9.63;;;;;;;;;;4682430;30;20065;-80
2022/11/28 10:33:22;;;;;;;15.63;8.60;;;;;;;;;;4688495;30;20501;-81
2022/11/28 10:35:53;;;;;;;9.18;7.55;;;;;;;;;;4699489;30;20050;-80
2022/11/28 10:38:24;;;;;;;15.27;9.05;;;;;;;;;;4700058;30;20049;-80
2022/11/28 10:41:04;;;;;;;13.00;7.88;;;;;;;;;;4699077;30;20050;-80
2022/11/28 10:43:32;;;;;;;13.38;9.85;;;;;;;;;;4699978;30;20049;-80
2022/11/28 10:46:10;;;;;;;12.23;8.25;;;;;;;;;;4699939;30;20068;-81
2022/11/28 10:48:53;;;;;;;13.48;9.10;;;;;;;;;;4699158;30;20506;-81
2022/11/28 10:51:21;;;;;;;13.70;8.90;;;;;;;;;;4698177;30;20556;-80
2022/11/28 10:54:02;;;;;;;15.68;10.15;;;;;;;;;;4699567;30;20058;-81
2022/11/28 10:56:29;;;;;;;13.07;6.13;;;;;;;;;;4697776;30;20057;-81
2022/11/28 10:58:59;;;;;;;15.10;11.00;;;;;;;;;;4669913;30;20300;-81
2022/11/28 11:01:29;;;;;;;13.18;8.55;;;;;;;;;;4692157;30;20054;-81
2022/11/28 11:03:56;;;;;;;10.30;7.38;;;;;;;;;;4680421;30;20050;-81
2022/11/28 11:06:25;;;;;;;13.27;9.45;;;;;;;;;;4682125;30;20069;-81
2022/11/28 11:09:09;;;;;;;12.70;7.97;;;;;;;;;;4682254;30;20061;-80
2022/11/28 11:11:41;;;;;;;20.33;9.68;;;;;;;;;;4685084;30;20131;-84
2022/11/28 11:14:10;;;;;;;15.07;7.63;;;;;;;;;;4670013;30;20513;-81
2022/11/28 11:16:57;;;;;;;12.98;8.02;;;;;;;;;;4684446;30;20049;-80
2022/11/28 11:19:27;;;;;;;14.88;11.52;;;;;;;;;;4683912;30;20065;-80
2022/11/28 11:22:06;;;;;;;9.23;7.50;;;;;;;;;;4684147;30;20054;-80
2022/11/28 11:25:12;;;;;;;15.77;9.27;;;;;;;;;;4685069;30;20128;-80
2022/11/28 11:27:48;;;;;;;12.02;6.78;;;;;;;;;;4685202;30;20413;-81
2022/11/28 11:30:17;;;;;;;9.43;6.65;;;;;;;;;;4684331;30;20054;-80
2022/11/28 11:32:48;;;;;;;13.45;9.00;;;;;;;;;;4684170;30;20509;-80
2022/11/28 11:35:25;;;;;;;13.90;9.02;;;;;;;;;;4690102;30;20519;-80
2022/11/28 11:37:54;;;;;;;12.30;7.70;;;;;;;;;;4702576;30;20065;-80
2022/11/28 11:40:22;;;;;;;14.18;9.23;;;;;;;;;;4686805;30;20050;-80
2022/11/28 11:42:55;;;;;;;16.58;10.90;;;;;;;;;;4702647;30;20064;-80
2022/11/28 11:45:24;;;;;;;12.00;8.48;;;;;;;;;;4700625;30;20050;-80
2022/11/28 11:47:51;;;;;;;16.27;8.82;;;;;;;;;;4701658;30;20045;-80
2022/11/28 11:50:21;;;;;;;16.20;11.10;;;;;;;;;;4710585;30;20049;-81
2022/11/28 11:53:07;;;;;;;13.05;8.45;;;;;;;;;;4716612;30;20057;-81
2022/11/28 11:55:39;;;;;;;11.98;8.13;;;;;;;;;;4697710;30;20042;-83
2022/11/28 11:58:10;;;;;;;19.77;13.13;;;;;;;;;;4690537;30;20500;-82
2022/11/28 12:00:39;;;;;;;15.90;11.40;;;;;;;;;;4701709;30;20060;-81
2022/11/28 12:03:26;;;;;;;16.70;10.48;;;;;;;;;;4701374;30;20423;-82
2022/11/28 12:05:55;;;;;;;13.52;9.27;;;;;;;;;;4687572;30;20050;-82
2022/11/28 12:08:49;;;;;;;13.63;8.65;;;;;;;;;;4692115;30;20072;-83
2022/11/28 12:11:23;;;;;;;13.82;8.90;;;;;;;;;;4695529;30;20072;-83
2022/11/28 12:13:51;;;;;;;14.27;9.15;;;;;;;;;;4693975;30;20062;-83
2022/11/28 12:16:38;;;;;;;12.63;8.32;;;;;;;;;;4691618;30;20065;-86
2022/11/28 12:19:09;;;;;;;14.98;10.23;;;;;;;;;;4690103;30;20061;-83
2022/11/28 12:21:52;;;;;;;17.20;10.32;;;;;;;;;;4689569;30;20054;-83
2022/11/28 12:25:04;;;;;;;17.02;11.23;;;;;;;;;;4624869;30;20430;-82
2022/11/28 12:27:33;;;;;;;;;;;;;;;;;;4620118;30;20062;-83
2022/11/28 12:30:04;;;;;;;19.77;11.38;;;;;;;;;;4618224;30;20089;-83
2022/11/28 12:32:34;;;;;;;18.80;10.98;;;;;;;;;;4634905;30;20055;-82
2022/11/28 12:35:27;;;;;;;27.95;22.70;;;;;;;;;;4623552;30;20062;-83
2022/11/28 12:38:00;;;;;;;13.93;8.65;;;;;;;;;;4593824;30;20070;-83
2022/11/28 12:40:45;;;;;;;18.23;9.65;;;;;;;;;;4638873;30;20097;-83
2022/11/28 12:43:12;;;;;;;15.52;10.93;;;;;;;;;;4639066;30;20063;-82
2022/11/28 12:45:45;;;;;;;15.13;8.73;;;;;;;;;;4623738;30;20077;-85
2022/11/28 12:48:31;;;;;;;15.27;7.07;;;;;;;;;;4638375;30;20917;-83
2022/11/28 12:50:59;;;;;;;16.92;10.70;;;;;;;;;;4650916;30;20553;-85
2022/11/28 12:54:06;;;;;;;13.95;7.97;;;;;;;;;;4661742;30;20042;-84
2022/11/28 12:56:38;;;;;;;15.70;9.52;;;;;;;;;;4637226;30;20073;-84
2022/11/28 12:59:18;;;;;;;11.93;8.00;;;;;;;;;;4665696;30;20082;-84
2022/11/28 13:01:52;;;;;;;12.18;8.30;;;;;;;;;;4643597;30;20054;-84
2022/11/28 13:04:39;;;;;;;12.50;8.52;;;;;;;;;;4678090;30;20497;-84
2022/11/28 13:07:10;;;;;;;13.73;6.82;;;;;;;;;;4680416;30;20529;-84
2022/11/28 13:09:42;;;;;;;12.38;8.23;;;;;;;;;;4679337;30;20062;-84
2022/11/28 13:12:19;;;;;;;12.30;8.93;;;;;;;;;;4680369;30;20054;-84
2022/11/28 13:14:54;;;;;;;16.10;7.38;;;;;;;;;;4664167;30;20577;-84
2022/11/28 13:17:22;;;;;;;13.55;10.30;;;;;;;;;;4664874;30;20501;-84
2022/11/28 13:20:16;;;;;;;12.35;8.45;;;;;;;;;;4673795;30;20061;-84
2022/11/28 13:23:02;;;;;;;15.35;9.05;;;;;;;;;;4658980;30;20057;-84
2022/11/28 13:25:49;;;;;;;13.82;8.73;;;;;;;;;;4694493;30;20057;-83
2022/11/28 13:28:35;;;;;;;14.07;9.55;;;;;;;;;;4696716;30;20053;-84
2022/11/28 13:31:11;;;;;;;12.70;8.07;;;;;;;;;;4685062;30;20079;-82
2022/11/28 13:33:45;;;;;;;11.55;8.07;;;;;;;;;;4693687;30;20057;-84
2022/11/28 13:36:18;;;;;;;13.73;9.48;;;;;;;;;;4692410;30;20049;-82
2022/11/28 13:39:25;;;;;;;16.17;9.02;;;;;;;;;;4695907;30;20496;-84
2022/11/28 13:42:01;;;;;;;13.95;8.20;;;;;;;;;;4685342;30;20058;-83
2022/11/28 13:45:00;;;;;;;12.20;8.75;;;;;;;;;;4687361;30;20057;-84
2022/11/28 13:47:30;;;;;;;14.13;10.57;;;;;;;;;;4695565;30;20665;-84
2022/11/28 13:50:29;;;;;;;13.27;10.00;;;;;;;;;;4691857;30;20058;-82
2022/11/28 13:53:00;;;;;;;14.35;10.20;;;;;;;;;;4694342;30;20069;-83
2022/11/28 13:55:43;;;;;;;12.30;8.55;;;;;;;;;;4695100;30;20053;-84
2022/11/28 13:58:16;;;;;;;12.80;8.85;;;;;;;;;;4680825;30;20069;-84
2022/11/28 14:00:58;;;;;;;15.80;8.60;;;;;;;;;;4709670;30;20058;-86
2022/11/28 14:03:26;;;;;;;9.68;7.78;;;;;;;;;;4695200;30;20057;-88
2022/11/28 14:05:57;;;;;;;10.63;7.50;;;;;;;;;;4663886;30;20061;-83
2022/11/28 14:08:31;;;;;;;13.75;10.50;;;;;;;;;;4694750;30;20769;-84
2022/11/28 14:11:04;;;;;;;12.68;9.15;;;;;;;;;;4694684;30;20541;-83
2022/11/28 14:13:43;;;;;;;13.75;8.68;;;;;;;;;;4694539;30;20057;-83
2022/11/28 14:16:23;;;;;;;13.38;8.82;;;;;;;;;;4694578;30;20045;-82
2022/11/28 14:19:10;;;;;;;12.50;8.88;;;;;;;;;;4666819;30;20512;-83
2022/11/28 14:21:51;;;;;;;13.90;9.75;;;;;;;;;;4693782;30;20084;-84
2022/11/28 14:24:46;;;;;;;12.57;8.52;;;;;;;;;;4704930;30;20063;-87
2022/11/28 14:27:17;;;;;;;16.38;9.43;;;;;;;;;;4692235;30;20096;-84
2022/11/28 14:29:47;;;;;;;13.60;10.40;;;;;;;;;;4696669;30;20061;-82
2022/11/28 14:32:27;;;;;;;16.02;10.02;;;;;;;;;;4695770;30;20299;-82
2022/11/28 14:34:59;;;;;;;13.93;8.50;;;;;;;;;;4694265;30;20062;-81
2022/11/28 14:37:35;;;;;;;11.80;8.63;;;;;;;;;;4693322;30;20061;-81
2022/11/28 14:40:39;;;;;;;17.63;11.27;;;;;;;;;;4695169;30;20136;-82
2022/11/28 14:43:30;;;;;;;11.27;8.15;;;;;;;;;;4724176;25;20061;31
2022/11/28 14:46:18;;;;;;;17.38;10.38;;;;;;;;;;4628796;30;20054;-85
2022/11/28 14:48:58;;;;;;;13.27;7.78;;;;;;;;;;4638068;30;20066;-81
2022/11/28 14:51:46;;;;;;;13.27;8.52;;;;;;;;;;4638115;30;20065;-82
2022/11/28 14:54:34;;;;;;;13.05;7.75;;;;;;;;;;4606346;30;20062;-81
2022/11/28 14:57:17;;;;;;;17.48;8.95;;;;;;;;;;4635542;30;20052;-81
2022/11/28 14:59:45;;;;;;;15.75;9.23;;;;;;;;;;4634653;30;20062;-81
2022/11/28 15:02:24;;;;;;;18.33;10.77;;;;;;;;;;4621171;30;20628;-81
2022/11/28 15:05:03;;;;;;;12.20;9.50;;;;;;;;;;4635883;30;20063;-80
2022/11/28 15:07:42;;;;;;;13.07;10.40;;;;;;;;;;4637552;30;20942;-81
2022/11/28 15:10:23;;;;;;;15.90;10.23;;;;;;;;;;4634563;30;20058;-81
2022/11/28 15:13:01;;;;;;;17.08;10.02;;;;;;;;;;4627401;30;20927;-81
2022/11/28 15:15:29;;;;;;;16.67;8.63;;;;;;;;;;4637523;30;20059;-81
2022/11/28 15:17:59;;;;;;;17.30;11.68;;;;;;;;;;4637554;30;20066;-81
2022/11/28 15:20:31;;;;;;;14.65;10.35;;;;;;;;;;4632293;30;20061;-81
2022/11/28 15:23:00;;;;;;;17.85;12.10;;;;;;;;;;4630043;30;20063;-80
2022/11/28 15:25:34;;;;;;;15.75;10.82;;;;;;;;;;4642695;30;20055;-80
2022/11/28 15:28:14;;;;;;;15.45;10.75;;;;;;;;;;4645308;30;20066;-80
2022/11/28 15:30:44;;;;;;;18.13;10.80;;;;;;;;;;4621031;30;21028;-80